Time;durP1;ratioP1;P1;durP2;ratioP2;P2;SDS_P1;SDS_P2;PMS_P1;PMS_P2;Temp;Humidity;BMP_temperature;BMP_pressure;BME280_temperature;BME280_humidity;BME280_pressure;Samples;Min_cycle;Max_cycle;Signal;HPM_P1;HPM_P2
2022/03/28 00:01:09;;;;;;;16.33;8.35;;;;;;;;;;5032630;28;20075;-76
2022/03/28 00:03:35;;;;;;;14.63;8.38;;;;;;;;;;5031813;28;20370;-73
2022/03/28 00:06:02;;;;;;;18.13;9.40;;;;;;;;;;5029232;28;20179;-75
2022/03/28 00:08:28;;;;;;;15.70;8.07;;;;;;;;;;5011233;28;20030;-76
2022/03/28 00:10:54;;;;;;;16.08;8.13;;;;;;;;;;5012026;28;20052;-75
2022/03/28 00:13:20;;;;;;;19.23;8.43;;;;;;;;;;5012706;28;20030;-75
2022/03/28 00:15:46;;;;;;;22.75;8.88;;;;;;;;;;5010859;28;20049;-76
2022/03/28 00:18:12;;;;;;;15.40;8.13;;;;;;;;;;4994898;28;20459;-75
2022/03/28 00:20:39;;;;;;;19.05;8.02;;;;;;;;;;5011709;28;20034;-75
2022/03/28 00:23:05;;;;;;;17.40;9.50;;;;;;;;;;5012419;28;20026;-74
2022/03/28 00:25:32;;;;;;;13.48;7.90;;;;;;;;;;5012270;28;20491;-74
2022/03/28 00:27:58;;;;;;;19.77;8.85;;;;;;;;;;5011744;28;20025;-74
2022/03/28 00:30:24;;;;;;;16.20;8.07;;;;;;;;;;4994968;28;20025;-75
2022/03/28 00:32:50;;;;;;;20.73;9.63;;;;;;;;;;5011390;28;20124;-75
2022/03/28 00:35:24;;;;;;;15.40;8.98;;;;;;;;;;5015916;28;20053;-75
2022/03/28 00:37:54;;;;;;;14.30;8.10;;;;;;;;;;5031428;28;20462;-76
2022/03/28 00:40:27;;;;;;;15.98;8.63;;;;;;;;;;5032132;28;20031;-76
2022/03/28 00:42:59;;;;;;;18.50;8.90;;;;;;;;;;5031179;28;20029;-75
2022/03/28 00:45:28;;;;;;;20.17;9.77;;;;;;;;;;5031655;28;20100;-76
2022/03/28 00:47:56;;;;;;;16.03;8.40;;;;;;;;;;5026642;28;20045;-75
2022/03/28 00:50:23;;;;;;;16.15;8.27;;;;;;;;;;5047058;28;20102;-76
2022/03/28 00:52:50;;;;;;;14.65;8.52;;;6.20;99.90;;;;;;5049747;28;20436;-75
2022/03/28 00:55:16;;;;;;;18.52;8.75;;;6.10;99.90;;;;;;5050677;28;20094;-75
2022/03/28 00:57:42;;;;;;;19.70;8.75;;;6.10;99.90;;;;;;5051666;28;20372;-75
2022/03/28 01:00:09;;;;;;;14.43;7.93;;;6.10;99.90;;;;;;5054319;28;20029;-76
2022/03/28 01:02:36;;;;;;;15.98;8.23;;;;;;;;;;5058945;28;20060;-75
2022/03/28 01:05:04;;;;;;;19.30;9.07;;;;;;;;;;5061900;28;20025;-75
2022/03/28 01:07:32;;;;;;;18.23;8.60;;;;;;;;;;5062600;28;20021;-75
2022/03/28 01:10:00;;;;;;;21.45;9.73;;;5.90;99.90;;;;;;5060771;28;20024;-75
2022/03/28 01:12:27;;;;;;;20.38;9.15;;;6.00;99.90;;;;;;5063106;28;20064;-75
2022/03/28 01:14:55;;;;;;;17.63;9.27;;;6.00;99.90;;;;;;5059894;28;20063;-75
2022/03/28 01:20:06;;;;;;;19.85;10.25;;;5.90;99.90;;;;;;5052015;28;20086;-77
2022/03/28 01:22:32;;;;;;;16.27;8.90;;;5.90;99.90;;;;;;5051466;28;20123;-77
2022/03/28 01:25:03;;;;;;;17.25;8.38;;;5.90;99.90;;;;;;5050609;28;20545;-76
2022/03/28 01:27:29;;;;;;;15.70;8.15;;;5.80;99.90;;;;;;5055073;28;20036;-76
2022/03/28 01:29:54;;;;;;;16.60;8.30;;;5.70;99.90;;;;;;5053469;28;20021;-76
2022/03/28 01:32:20;;;;;;;16.33;9.10;;;5.70;99.90;;;;;;5054158;28;20029;-76
2022/03/28 01:34:46;;;;;;;18.15;9.20;;;5.60;99.90;;;;;;5053241;28;20377;-76
2022/03/28 01:37:12;;;;;;;17.38;9.00;;;5.60;99.90;;;;;;5054727;28;20025;-76
2022/03/28 01:39:39;;;;;;;21.30;9.57;;;;;;;;;;5055499;28;20029;-72
2022/03/28 01:42:08;;;;;;;15.25;8.73;;;;;;;;;;5054486;28;20029;-74
2022/03/28 01:44:35;;;;;;;17.85;8.82;;;;;;;;;;5047193;28;20029;-76
2022/03/28 01:47:02;;;;;;;20.25;9.38;;;;;;;;;;5034459;28;20667;-77
2022/03/28 01:49:29;;;;;;;23.08;10.68;;;;;;;;;;5026690;28;20073;-76
2022/03/28 01:51:56;;;;;;;18.58;9.23;;;;;;;;;;5014509;28;20037;-76
2022/03/28 01:54:21;;;;;;;17.23;8.80;;;5.50;99.90;;;;;;5015152;28;20033;-76
2022/03/28 01:56:47;;;;;;;16.88;9.00;;;5.50;99.90;;;;;;5014296;28;20026;-76
2022/03/28 01:59:13;;;;;;;18.85;9.52;;;5.40;99.90;;;;;;4997800;28;20064;-76
2022/03/28 02:01:39;;;;;;;18.30;9.38;;;5.40;99.90;;;;;;5014347;28;20029;-73
2022/03/28 02:04:05;;;;;;;21.60;10.20;;;5.40;99.90;;;;;;5014810;28;20056;-76
2022/03/28 02:06:34;;;;;;;17.30;8.88;;;5.50;99.90;;;;;;5014779;28;20446;-76
2022/03/28 02:09:00;;;;;;;20.02;9.63;;;5.40;99.90;;;;;;5014343;28;20026;-76
2022/03/28 02:11:26;;;;;;;20.45;9.70;;;5.40;99.90;;;;;;5014972;28;20049;-76
2022/03/28 02:13:51;;;;;;;17.10;9.68;;;5.40;99.90;;;;;;5014285;28;20475;-76
2022/03/28 02:16:17;;;;;;;20.65;9.45;;;5.40;99.90;;;;;;5014885;28;20121;-76
2022/03/28 02:18:43;;;;;;;21.45;10.15;;;5.40;99.90;;;;;;5013495;28;20088;-73
2022/03/28 02:21:08;;;;;;;18.40;9.38;;;5.30;99.90;;;;;;5014652;28;20171;-76
2022/03/28 02:23:34;;;;;;;19.10;8.65;;;5.30;99.90;;;;;;4996809;28;20108;-76
2022/03/28 02:26:00;;;;;;;19.35;9.70;;;5.20;99.90;;;;;;5013467;28;20030;-76
2022/03/28 02:28:26;;;;;;;21.75;10.40;;;5.10;99.90;;;;;;5014969;28;20101;-76
2022/03/28 02:30:53;;;;;;;18.80;10.43;;;5.10;99.90;;;;;;5014045;28;20025;-76
2022/03/28 02:33:21;;;;;;;20.70;9.93;;;;;;;;;;5015150;28;20112;-76
2022/03/28 02:35:46;;;;;;;19.10;9.85;;;5.10;99.90;;;;;;5013612;28;20022;-76
2022/03/28 02:38:12;;;;;;;25.35;10.05;;;5.10;99.90;;;;;;5013837;28;20076;-76
2022/03/28 02:40:38;;;;;;;20.95;10.07;;;5.10;99.90;;;;;;5014225;28;20038;-76
2022/03/28 02:43:04;;;;;;;21.65;9.57;;;5.00;99.90;;;;;;4995960;28;20124;-76
2022/03/28 02:45:32;;;;;;;21.85;10.43;;;4.40;99.90;;;;;;5030991;28;20049;-76
2022/03/28 02:47:59;;;;;;;19.77;9.57;;;3.90;99.90;;;;;;5015635;28;20351;-76
2022/03/28 02:50:28;;;;;;;19.05;10.45;;;4.90;99.90;;;;;;5050381;28;20052;-76
2022/03/28 02:52:54;;;;;;;20.55;10.57;;;5.00;99.90;;;;;;5053437;28;20064;-76
2022/03/28 02:55:19;;;;;;;18.13;9.15;;;4.60;99.90;;;;;;5053926;28;20459;-76
2022/03/28 02:57:45;;;;;;;20.70;10.50;;;4.90;99.90;;;;;;5052867;28;20146;-75
2022/03/28 03:00:11;;;;;;;20.58;10.30;;;4.90;99.90;;;;;;5053523;28;20071;-76
2022/03/28 03:02:42;;;;;;;16.00;9.40;;;4.80;99.90;;;;;;5053198;28;20436;-76
2022/03/28 03:05:09;;;;;;;18.00;10.27;;;4.80;99.90;;;;;;5053424;28;20065;-76
2022/03/28 03:07:35;;;;;;;23.38;10.30;;;4.60;99.90;;;;;;5053603;28;20100;-77
2022/03/28 03:10:00;;;;;;;21.77;10.68;;;4.60;99.90;;;;;;5052627;28;20132;-75
2022/03/28 03:12:26;;;;;;;23.73;10.73;;;4.60;99.90;;;;;;5053705;28;20040;-76
2022/03/28 03:14:52;;;;;;;19.40;9.90;;;4.60;99.90;;;;;;5052212;28;20493;-76
2022/03/28 03:17:18;;;;;;;20.42;9.43;;;4.60;99.90;;;;;;5053242;28;20089;-75
2022/03/28 03:19:44;;;;;;;21.95;10.27;;;4.50;99.90;;;;;;5052718;28;20083;-73
2022/03/28 03:22:14;;;;;;;21.10;10.27;;;4.50;99.90;;;;;;5052780;28;20439;-77
2022/03/28 03:24:40;;;;;;;19.13;10.17;;;4.50;99.90;;;;;;5053379;28;20067;-76
2022/03/28 03:27:06;;;;;;;19.08;9.48;;;4.50;99.90;;;;;;5052497;28;20033;-75
2022/03/28 03:29:32;;;;;;;19.05;10.10;;;4.40;99.90;;;;;;5052959;28;20466;-76
2022/03/28 03:31:58;;;;;;;22.25;10.70;;;4.40;99.90;;;;;;5051248;28;20053;-76
2022/03/28 03:34:24;;;;;;;23.45;9.90;;;4.30;99.90;;;;;;5051811;28;20078;-76
2022/03/28 03:36:49;;;;;;;22.20;10.25;;;4.20;99.90;;;;;;5052156;28;20234;-75
2022/03/28 03:39:15;;;;;;;20.58;9.18;;;4.20;99.90;;;;;;5052630;28;20363;-75
2022/03/28 03:41:41;;;;;;;18.98;9.68;;;4.20;99.90;;;;;;5052933;28;20359;-76
2022/03/28 03:44:06;;;;;;;22.38;10.52;;;4.20;99.90;;;;;;5048085;28;20073;-75
2022/03/28 03:46:32;;;;;;;18.67;9.63;;;4.20;99.90;;;;;;5032901;28;20038;-76
2022/03/28 03:48:58;;;;;;;23.23;10.82;;;4.10;99.90;;;;;;5032010;28;20407;-75
2022/03/28 03:51:24;;;;;;;21.02;9.98;;;4.10;99.90;;;;;;5033120;28;20033;-75
2022/03/28 03:53:50;;;;;;;25.02;11.48;;;4.10;99.90;;;;;;5032209;28;20036;-75
2022/03/28 03:56:16;;;;;;;18.90;9.77;;;4.10;99.90;;;;;;5032537;28;20107;-76
2022/03/28 03:58:42;;;;;;;22.90;10.02;;;4.10;99.90;;;;;;5032644;28;20026;-75
2022/03/28 04:01:08;;;;;;;16.30;9.13;;;4.10;99.90;;;;;;5031844;28;20395;-76
2022/03/28 04:03:35;;;;;;;21.45;10.40;;;4.00;99.90;;;;;;5032682;28;20033;-75
2022/03/28 04:06:01;;;;;;;16.38;9.57;;;4.00;99.90;;;;;;5032236;28;20034;-76
2022/03/28 04:08:27;;;;;;;18.50;9.30;;;3.90;99.90;;;;;;5032077;28;20367;-75
2022/03/28 04:10:54;;;;;;;20.98;10.32;;;3.80;99.90;;;;;;5032186;28;20021;-75
2022/03/28 04:13:19;;;;;;;26.42;10.63;;;3.80;99.90;;;;;;5032696;28;20025;-76
2022/03/28 04:15:45;;;;;;;19.98;10.52;;;3.80;99.90;;;;;;5031577;28;20030;-73
2022/03/28 04:18:10;;;;;;;17.42;9.30;;;3.80;99.90;;;;;;5032745;28;20422;-77
2022/03/28 04:20:36;;;;;;;18.17;9.88;;;3.80;99.90;;;;;;5031229;28;20034;-76
2022/03/28 04:23:02;;;;;;;22.48;10.52;;;3.80;99.90;;;;;;5029562;28;20041;-75
2022/03/28 04:25:28;;;;;;;21.20;11.23;;;3.70;99.90;;;;;;5030887;28;20035;-75
2022/03/28 04:27:54;;;;;;;24.77;10.95;;;3.80;99.90;;;;;;5031533;28;20057;-76
2022/03/28 04:30:20;;;;;;;24.17;11.77;;;3.80;99.90;;;;;;5031773;28;20030;-75
2022/03/28 04:32:45;;;;;;;24.80;10.85;;;3.80;99.90;;;;;;5031718;28;20473;-73
2022/03/28 04:35:12;;;;;;;18.30;10.25;;;3.80;99.90;;;;;;5031660;28;20021;-76
2022/03/28 04:37:39;;;;;;;18.80;9.95;;;3.80;99.90;;;;;;5031490;28;20033;-75
2022/03/28 04:40:08;;;;;;;21.65;10.50;;;3.80;99.90;;;;;;5031218;28;20309;-76
2022/03/28 04:42:34;;;;;;;22.17;10.50;;;3.70;99.90;;;;;;5031720;28;20545;-77
2022/03/28 04:44:59;;;;;;;22.88;10.95;;;3.70;99.90;;;;;;5042498;28;20029;-74
2022/03/28 04:47:25;;;;;;;21.13;10.38;;;3.70;99.90;;;;;;5051989;28;20029;-75
2022/03/28 04:49:51;;;;;;;18.98;10.27;;;3.60;99.90;;;;;;5050796;28;20053;-73
2022/03/28 04:52:17;;;;;;;24.17;10.45;;;3.60;99.90;;;;;;5051947;28;20032;-75
2022/03/28 04:54:42;;;;;;;24.92;10.63;;;3.50;99.90;;;;;;5051895;28;20063;-76
2022/03/28 04:57:08;;;;;;;26.75;10.45;;;3.50;99.90;;;;;;5050203;28;20036;-74
2022/03/28 04:59:33;;;;;;;24.63;11.77;;;3.50;99.90;;;;;;5052045;28;20065;-75
2022/03/28 05:01:59;;;;;;;22.42;10.90;;;3.50;99.90;;;;;;5050920;28;20031;-75
2022/03/28 05:04:25;;;;;;;22.10;10.13;;;3.60;99.90;;;;;;5051782;28;20033;-76
2022/03/28 05:06:51;;;;;;;21.15;10.70;;;3.60;99.90;;;;;;5051577;28;20037;-76
2022/03/28 05:09:17;;;;;;;21.58;10.82;;;3.50;99.90;;;;;;5053076;28;20089;-75
2022/03/28 05:11:44;;;;;;;23.67;11.43;;;3.50;99.90;;;;;;5056356;28;20048;-75
2022/03/28 05:14:09;;;;;;;23.02;11.48;;;3.50;99.90;;;;;;5059461;28;20036;-74
2022/03/28 05:16:35;;;;;;;22.13;11.00;;;3.40;99.90;;;;;;5057676;28;20086;-75
2022/03/28 05:19:02;;;;;;;27.48;11.38;;;3.40;99.90;;;;;;5058206;28;20029;-76
2022/03/28 05:21:27;;;;;;;24.98;10.48;;;3.50;99.90;;;;;;5065568;28;20029;-75
2022/03/28 05:23:53;;;;;;;23.13;10.70;;;3.50;99.90;;;;;;5065967;28;20025;-76
2022/03/28 05:26:19;;;;;;;22.35;11.23;;;3.60;99.90;;;;;;5051893;28;20044;-76
2022/03/28 05:28:44;;;;;;;20.33;10.10;;;3.70;99.90;;;;;;5051912;28;20033;-74
2022/03/28 05:31:10;;;;;;;25.92;11.85;;;3.80;99.90;;;;;;5050728;28;20025;-76
2022/03/28 05:33:36;;;;;;;21.25;10.60;;;3.80;99.90;;;;;;5051434;28;20035;-76
2022/03/28 05:36:01;;;;;;;23.77;11.38;;;3.90;99.90;;;;;;5050657;28;20032;-75
2022/03/28 05:38:28;;;;;;;24.00;11.15;;;3.90;99.90;;;;;;5051432;28;20075;-76
2022/03/28 05:40:56;;;;;;;26.27;11.60;;;3.90;99.90;;;;;;5050431;28;20112;-75
2022/03/28 05:43:21;;;;;;;26.45;11.90;;;3.90;99.90;;;;;;5051413;28;20036;-76
2022/03/28 05:45:47;;;;;;;20.27;11.10;;;4.00;99.90;;;;;;5032463;28;20034;-74
2022/03/28 05:48:13;;;;;;;25.45;11.05;;;4.00;99.90;;;;;;5031379;28;20021;-77
2022/03/28 05:50:39;;;;;;;28.20;11.55;;;4.10;99.90;;;;;;5030867;28;20141;-75
2022/03/28 05:53:05;;;;;;;22.40;11.85;;;4.10;99.90;;;;;;5030903;28;20036;-75
2022/03/28 05:55:31;;;;;;;23.27;10.68;;;4.20;99.90;;;;;;5030774;28;20036;-85
2022/03/28 05:57:57;;;;;;;31.73;12.18;;;4.30;99.90;;;;;;5030849;28;20022;-80
2022/03/28 06:00:23;;;;;;;25.15;11.20;;;4.40;99.90;;;;;;5030859;28;20021;-77
2022/03/28 06:02:49;;;;;;;22.17;11.07;;;4.40;99.90;;;;;;5030371;28;20043;-71
2022/03/28 06:05:14;;;;;;;24.67;10.73;;;4.50;99.90;;;;;;5031615;28;20025;-75
2022/03/28 06:07:41;;;;;;;23.42;11.55;;;4.60;99.90;;;;;;5029912;28;20030;-78
2022/03/28 06:10:07;;;;;;;20.92;10.05;;;4.60;99.90;;;;;;5030358;28;20026;-78
2022/03/28 06:12:33;;;;;;;20.40;10.45;;;4.70;99.90;;;;;;5033254;28;20039;-77
2022/03/28 06:14:58;;;;;;;31.15;11.02;;;4.80;99.90;;;;;;5035516;28;20112;-76
2022/03/28 06:17:26;;;;;;;20.55;10.82;;;4.90;99.90;;;;;;5035069;28;20032;-75
2022/03/28 06:19:52;;;;;;;20.92;9.93;;;4.90;99.90;;;;;;5032598;28;20125;-73
2022/03/28 06:22:18;;;;;;;22.67;10.15;;;5.00;99.90;;;;;;5034650;28;20029;-74
2022/03/28 06:24:45;;;;;;;18.25;10.35;;;5.10;99.90;;;;;;5033242;28;20046;-73
2022/03/28 06:27:11;;;;;;;29.23;10.80;;;5.20;99.90;;;;;;5033896;28;20100;-73
2022/03/28 06:29:37;;;;;;;19.73;10.43;;;5.30;99.90;;;;;;5034430;28;20033;-74
2022/03/28 06:32:03;;;;;;;25.10;11.88;;;5.40;99.90;;;;;;5033651;28;20029;-75
2022/03/28 06:34:28;;;;;;;20.15;10.18;;;5.50;99.90;;;;;;5034761;28;20059;-81
2022/03/28 06:36:54;;;;;;;18.52;10.30;;;5.60;99.90;;;;;;5033730;28;20104;-73
2022/03/28 06:39:20;;;;;;;23.35;12.45;;;5.70;99.90;;;;;;5028832;28;20029;-75
2022/03/28 06:41:46;;;;;;;20.25;10.55;;;5.80;99.90;;;;;;5032558;28;20096;-73
2022/03/28 06:44:11;;;;;;;18.58;10.00;;;6.00;99.90;;;;;;5036453;28;20025;-74
2022/03/28 06:46:43;;;;;;;17.40;9.80;;;6.10;99.90;;;;;;5034476;28;20033;-73
2022/03/28 06:49:09;;;;;;;19.13;10.73;;;6.20;99.90;;;;;;5028019;28;20635;-74
2022/03/28 06:51:35;;;;;;;19.70;11.00;;;6.30;99.90;;;;;;5014204;28;20601;-74
2022/03/28 06:54:03;;;;;;;21.20;10.82;;;6.40;99.90;;;;;;5013400;28;20026;-75
2022/03/28 06:56:29;;;;;;;18.90;10.65;;;6.40;99.90;;;;;;5017073;28;20099;-74
2022/03/28 06:58:55;;;;;;;20.95;10.63;;;6.60;99.90;;;;;;5015733;28;20030;-75
2022/03/28 07:01:20;;;;;;;25.70;10.95;;;6.70;99.90;;;;;;5014619;28;20030;-75
2022/03/28 07:03:46;;;;;;;19.67;10.20;;;6.80;99.90;;;;;;5014815;28;20120;-75
2022/03/28 07:06:12;;;;;;;17.05;9.95;;;7.00;99.90;;;;;;5013710;28;20028;-75
2022/03/28 07:08:37;;;;;;;21.85;11.80;;;7.10;99.50;;;;;;5015551;28;20022;-75
2022/03/28 07:11:03;;;;;;;23.70;12.60;;;7.30;99.10;;;;;;5031557;28;20105;-75
2022/03/28 07:13:29;;;;;;;25.63;13.40;;;7.40;98.70;;;;;;5033450;28;20025;-73
2022/03/28 07:15:55;;;;;;;25.98;12.38;;;7.60;97.90;;;;;;5032867;28;20397;-73
2022/03/28 07:18:21;;;;;;;25.75;12.65;;;7.80;96.90;;;;;;5033081;28;20052;-75
2022/03/28 07:20:47;;;;;;;24.15;12.90;;;8.00;96.20;;;;;;5033342;28;20100;-74
2022/03/28 07:23:13;;;;;;;25.90;12.23;;;8.20;95.40;;;;;;5032345;28;20498;-74
2022/03/28 07:25:39;;;;;;;24.70;12.48;;;8.30;94.60;;;;;;5033069;28;20497;-74
2022/03/28 07:28:09;;;;;;;26.13;12.15;;;8.40;94.20;;;;;;5032207;28;20021;-73
2022/03/28 07:30:35;;;;;;;25.55;12.18;;;8.40;93.70;;;;;;5033084;28;20021;-74
2022/03/28 07:33:02;;;;;;;24.73;12.02;;;8.60;93.40;;;;;;5014599;28;20033;-72
2022/03/28 07:35:29;;;;;;;21.42;12.00;;;8.70;92.90;;;;;;5015615;28;20030;-72
2022/03/28 07:37:55;;;;;;;29.38;12.63;;;8.80;92.50;;;;;;5032629;28;20025;-74
2022/03/28 07:40:21;;;;;;;28.02;11.98;;;8.90;92.10;;;;;;5032410;28;20025;-73
2022/03/28 07:42:46;;;;;;;25.98;12.38;;;9.00;92.30;;;;;;5032704;28;20088;-74
2022/03/28 07:45:14;;;;;;;25.25;12.55;;;9.10;91.40;;;;;;5034538;28;20026;-74
2022/03/28 07:47:40;;;;;;;25.17;13.18;;;9.20;91.10;;;;;;5020608;28;20029;-74
2022/03/28 07:50:07;;;;;;;28.95;14.52;;;9.30;90.80;;;;;;5025997;28;20514;-74
2022/03/28 07:52:34;;;;;;;24.67;12.35;;;9.40;90.30;;;;;;5032835;28;20108;-73
2022/03/28 07:55:00;;;;;;;25.00;13.35;;;9.50;90.20;;;;;;5032010;28;20078;-74
2022/03/28 07:57:26;;;;;;;30.50;13.05;;;9.60;88.80;;;;;;5032550;28;20034;-75
2022/03/28 07:59:52;;;;;;;31.98;13.43;;;9.70;88.20;;;;;;5032794;28;20017;-71
2022/03/28 08:02:18;;;;;;;25.73;12.82;;;9.80;87.60;;;;;;5032354;28;20030;-74
2022/03/28 08:04:45;;;;;;;28.67;14.50;;;10.00;86.70;;;;;;5032845;28;20061;-75
2022/03/28 08:07:12;;;;;;;24.27;13.02;;;10.10;86.30;;;;;;5032018;28;20495;-74
2022/03/28 08:09:39;;;;;;;23.25;12.10;;;10.30;85.50;;;;;;5032528;28;20021;-75
2022/03/28 08:12:06;;;;;;;30.15;13.85;;;10.40;84.00;;;;;;5031699;28;20060;-74
2022/03/28 08:14:34;;;;;;;28.95;14.30;;;;;;;;;;5033158;28;20030;-73
2022/03/28 08:17:00;;;;;;;22.48;13.10;;;10.90;98.40;;;;;;5030155;28;20030;-73
2022/03/28 08:19:26;;;;;;;28.95;13.20;;;11.10;92.50;;;;;;5032744;28;20025;-74
2022/03/28 08:21:52;;;;;;;23.58;12.98;;;11.10;79.40;;;;;;5032197;28;20026;-72
2022/03/28 08:24:18;;;;;;;24.33;13.18;;;11.20;79.50;;;;;;5030469;28;20068;-74
2022/03/28 08:26:44;;;;;;;25.50;13.55;;;11.30;78.60;;;;;;5032061;28;20124;-74
2022/03/28 08:29:10;;;;;;;28.52;14.20;;;11.40;79.00;;;;;;5031219;28;20068;-74
2022/03/28 08:31:36;;;;;;;30.33;13.60;;;;;;;;;;5032177;28;20060;-74
2022/03/28 08:34:02;;;;;;;28.83;13.55;;;11.60;76.90;;;;;;5031126;28;20033;-74
2022/03/28 08:36:27;;;;;;;26.90;15.00;;;11.80;76.70;;;;;;5031502;28;20030;-74
2022/03/28 08:38:53;;;;;;;22.55;12.63;;;11.90;75.80;;;;;;5031779;28;20103;-71
2022/03/28 08:41:20;;;;;;;25.45;15.02;;;11.90;76.00;;;;;;5030315;28;20033;-74
2022/03/28 08:43:46;;;;;;;27.70;13.00;;;12.10;74.50;;;;;;5032829;28;20079;-73
2022/03/28 08:46:18;;;;;;;25.60;13.65;;;12.10;73.90;;;;;;5048194;28;20039;-73
2022/03/28 08:48:44;;;;;;;24.00;12.70;;;12.30;72.80;;;;;;5031582;28;20029;-73
2022/03/28 08:51:13;;;;;;;29.77;14.48;;;12.30;72.70;;;;;;5043951;28;20483;-72
2022/03/28 08:53:39;;;;;;;35.30;14.45;;;12.50;72.80;;;;;;5047204;28;20040;-74
2022/03/28 08:56:08;;;;;;;27.55;15.65;;;12.70;72.10;;;;;;5051682;28;20033;-74
2022/03/28 08:58:34;;;;;;;29.08;14.30;;;12.90;72.00;;;;;;5039883;28;20022;-73
2022/03/28 09:01:00;;;;;;;36.00;17.05;;;13.10;70.70;;;;;;5053725;28;20044;-73
2022/03/28 09:03:40;;;;;;;33.95;16.70;;;13.30;69.80;;;;;;5045670;28;20026;-74
2022/03/28 09:06:42;;;;;;;31.63;15.98;;;13.40;68.40;;;;;;5033066;28;20037;-74
2022/03/28 09:09:14;;;;;;;33.30;16.67;;;13.50;66.90;;;;;;5043764;28;20026;-73
2022/03/28 09:11:42;;;;;;;32.58;14.65;;;13.60;66.00;;;;;;5051750;28;20467;-74
2022/03/28 09:14:13;;;;;;;31.77;15.40;;;13.80;63.10;;;;;;5051206;28;20033;-73
2022/03/28 09:16:39;;;;;;;39.13;15.32;;;13.90;61.50;;;;;;5036484;28;20036;-74
2022/03/28 09:19:10;;;;;;;31.25;16.85;;;;;;;;;;5050519;28;20029;-73
2022/03/28 09:21:36;;;;;;;52.97;16.35;;;14.20;60.30;;;;;;5051327;28;20033;-73
2022/03/28 09:24:09;;;;;;;31.85;15.90;;;14.30;61.10;;;;;;5050319;28;20315;-73
2022/03/28 09:26:35;;;;;;;33.85;16.30;;;14.30;59.70;;;;;;5050200;28;20120;-73
2022/03/28 09:29:03;;;;;;;34.20;16.35;;;14.40;61.00;;;;;;5048183;28;20510;-71
2022/03/28 09:31:35;;;;;;;36.63;14.95;;;14.50;60.80;;;;;;5042048;28;20033;-73
2022/03/28 09:34:11;;;;;;;46.28;17.58;;;14.60;60.00;;;;;;5050763;28;20029;-70
2022/03/28 09:36:48;;;;;;;30.05;15.70;;;14.80;60.70;;;;;;5036169;28;20416;-76
2022/03/28 09:39:20;;;;;;;37.30;16.17;;;14.90;60.10;;;;;;5033615;28;20021;-73
2022/03/28 09:42:03;;;;;;;35.28;16.05;;;14.90;60.40;;;;;;5050129;28;20036;-73
2022/03/28 09:44:39;;;;;;;56.55;16.60;;;15.10;61.60;;;;;;5047098;28;20474;-73
2022/03/28 09:47:11;;;;;;;36.63;17.08;;;15.30;60.70;;;;;;5047132;28;20029;-72
2022/03/28 09:49:38;;;;;;;36.40;16.52;;;15.40;60.50;;;;;;5030318;28;20049;-73
2022/03/28 09:52:09;;;;;;;31.45;15.60;;;15.70;67.40;;;;;;5034651;28;20029;-71
2022/03/28 09:54:50;;;;;;;31.15;16.08;;;15.70;59.50;;;;;;5033162;28;20029;-72
2022/03/28 09:57:23;;;;;;;50.67;16.90;;;15.70;59.70;;;;;;5021884;28;20036;-73
2022/03/28 09:59:49;;;;;;;32.08;16.25;;;15.90;59.60;;;;;;5033410;28;20034;-75
2022/03/28 10:02:26;;;;;;;38.95;16.85;;;16.00;60.10;;;;;;5029474;28;20021;-75
2022/03/28 10:04:54;;;;;;;63.30;18.17;;;16.20;60.20;;;;;;5032608;28;20037;-77
2022/03/28 10:07:21;;;;;;;42.35;17.75;;;16.30;59.70;;;;;;5016002;28;20025;-74
2022/03/28 10:09:47;;;;;;;90.53;20.92;;;16.60;59.40;;;;;;5018559;28;20044;-73
2022/03/28 10:12:14;;;;;;;45.25;16.00;;;16.60;59.70;;;;;;5022121;28;20104;-73
2022/03/28 10:14:40;;;;;;;31.45;16.50;;;16.70;59.30;;;;;;5015779;28;20030;-75
2022/03/28 10:17:07;;;;;;;30.15;16.63;;;16.90;58.70;;;;;;5019119;28;20113;-75
2022/03/28 10:19:37;;;;;;;42.60;17.85;;;17.10;58.50;;;;;;5035923;28;20040;-74
2022/03/28 10:22:12;;;;;;;46.05;17.42;;;17.20;57.70;;;;;;5036426;28;20091;-71
2022/03/28 10:24:43;;;;;;;35.92;18.23;;;17.40;57.70;;;;;;5035362;28;20061;-74
2022/03/28 10:27:12;;;;;;;29.70;16.38;;;17.60;56.80;;;;;;5032986;28;20022;-74
2022/03/28 10:29:42;;;;;;;40.53;18.92;;;17.80;56.50;;;;;;5014744;28;20080;-74
2022/03/28 10:32:14;;;;;;;33.17;17.70;;;18.00;55.40;;;;;;5021482;28;20175;-76
2022/03/28 10:34:45;;;;;;;29.90;16.90;;;18.10;55.70;;;;;;5022926;28;20029;-74
2022/03/28 10:37:36;;;;;;;32.42;17.52;;;18.10;55.20;;;;;;5015304;28;20431;-75
2022/03/28 10:40:31;;;;;;;30.17;18.20;;;18.20;55.30;;;;;;5019147;28;20040;-73
2022/03/28 10:43:14;;;;;;;31.15;18.50;;;18.30;55.00;;;;;;5014645;28;20037;-73
2022/03/28 10:45:49;;;;;;;32.08;16.88;;;18.50;53.70;;;;;;5029448;28;20040;-74
2022/03/28 10:48:34;;;;;;;32.55;17.08;;;18.70;52.90;;;;;;5014758;28;20379;-73
2022/03/28 10:51:08;;;;;;;36.60;17.75;;;18.90;53.90;;;;;;5029415;28;20390;-73
2022/03/28 10:53:39;;;;;;;27.52;16.20;;;19.00;49.70;;;;;;5032488;28;20029;-74
2022/03/28 10:56:20;;;;;;;32.35;17.95;;;18.90;51.20;;;;;;5016687;28;20459;-73
2022/03/28 10:58:54;;;;;;;30.05;16.58;;;19.00;50.40;;;;;;5027478;28;20028;-74
2022/03/28 11:01:26;;;;;;;31.60;18.13;;;19.10;50.80;;;;;;5033106;28;20103;-74
2022/03/28 11:03:58;;;;;;;34.28;17.20;;;19.30;49.90;;;;;;5030824;28;20029;-73
2022/03/28 11:06:45;;;;;;;37.58;18.73;;;19.40;49.20;;;;;;5020546;28;20033;-75
2022/03/28 11:09:12;;;;;;;30.08;18.48;;;19.60;48.30;;;;;;5032702;28;20017;-74
2022/03/28 11:11:56;;;;;;;30.90;17.45;;;19.80;48.50;;;;;;5033385;28;20386;-74
2022/03/28 11:14:44;;;;;;;32.63;16.23;;;20.00;47.50;;;;;;5033059;28;20599;-75
2022/03/28 11:17:23;;;;;;;33.25;17.33;;;20.20;45.80;;;;;;5032892;28;20049;-75
2022/03/28 11:20:07;;;;;;;28.35;15.48;;;20.40;45.00;;;;;;5033664;28;20107;-73
2022/03/28 11:22:44;;;;;;;23.17;14.73;;;20.60;44.10;;;;;;5032862;28;20033;-75
2022/03/28 11:25:29;;;;;;;32.40;16.73;;;20.80;43.30;;;;;;5032648;28;20041;-73
2022/03/28 11:28:08;;;;;;;38.63;16.50;;;21.00;43.00;;;;;;5033576;28;20025;-73
2022/03/28 11:30:46;;;;;;;27.10;16.73;;;21.20;43.10;;;;;;5032931;28;20037;-73
2022/03/28 11:33:32;;;;;;;34.13;17.10;;;21.60;41.60;;;;;;5021876;28;20026;-73
2022/03/28 11:35:59;;;;;;;30.60;17.77;;;;;;;;;;5027216;28;20026;-74
2022/03/28 11:38:31;;;;;;;29.38;17.25;;;;;;;;;;5020747;28;20022;-74
2022/03/28 11:40:57;;;;;;;30.92;18.42;;;22.30;41.10;;;;;;5025147;28;20371;-73
2022/03/28 11:43:31;;;;;;;27.08;17.23;;;22.10;41.10;;;;;;5021573;28;20041;-74
2022/03/28 11:45:59;;;;;;;28.88;17.27;;;22.00;41.70;;;;;;5018491;28;20030;-73
2022/03/28 11:48:25;;;;;;;28.50;18.33;;;22.00;41.70;;;;;;5027915;28;20644;-75
2022/03/28 11:50:53;;;;;;;32.65;17.20;;;21.90;41.70;;;;;;5045646;28;20058;-72
2022/03/28 11:53:19;;;;;;;29.48;18.05;;;22.00;41.60;;;;;;5033895;28;20037;-73
2022/03/28 11:55:55;;;;;;;28.08;17.52;;;22.20;41.00;;;;;;5040008;28;20037;-74
2022/03/28 11:58:31;;;;;;;34.53;16.85;;;22.40;40.70;;;;;;5034159;28;20128;-74
2022/03/28 12:01:10;;;;;;;34.00;18.05;;;22.60;40.10;;;;;;5039861;28;20048;-74
2022/03/28 12:03:50;;;;;;;28.77;16.35;;;22.70;45.30;;;;;;5050407;28;20025;-74
2022/03/28 12:06:31;;;;;;;28.83;17.30;;;22.70;44.80;;;;;;5043584;28;20025;-74
2022/03/28 12:08:57;;;;;;;28.00;16.95;;;22.80;44.80;;;;;;5033064;28;20476;-73
2022/03/28 12:11:25;;;;;;;30.92;18.50;;;23.00;49.70;;;;;;5049635;28;20210;-73
2022/03/28 12:13:51;;;;;;;31.67;18.25;;;23.00;39.00;;;;;;5032454;28;20033;-73
2022/03/28 12:16:17;;;;;;;29.60;18.52;;;23.10;38.80;;;;;;5031895;28;20105;-73
2022/03/28 12:18:44;;;;;;;32.63;18.27;;;23.00;39.40;;;;;;5032303;28;20112;-73
2022/03/28 12:21:10;;;;;;;36.97;20.30;;;23.00;39.20;;;;;;5035170;28;20497;-72
2022/03/28 12:23:36;;;;;;;38.47;19.15;;;23.00;39.60;;;;;;5034116;28;20029;-72
2022/03/28 12:26:04;;;;;;;32.42;18.50;;;23.10;40.20;;;;;;5032556;28;20038;-73
2022/03/28 12:28:38;;;;;;;30.08;18.75;;;23.00;39.90;;;;;;5031750;28;20297;-74
2022/03/28 12:31:05;;;;;;;32.58;19.25;;;23.10;39.60;;;;;;5036635;28;20024;-72
2022/03/28 12:33:38;;;;;;;36.58;21.00;;;23.00;40.50;;;;;;5052770;28;20040;-73
2022/03/28 12:36:11;;;;;;;36.92;20.23;;;23.10;40.00;;;;;;5041727;28;20402;-72
2022/03/28 12:38:38;;;;;;;31.67;18.83;;;23.00;40.20;;;;;;5034221;28;20112;-74
2022/03/28 12:41:15;;;;;;;30.98;17.92;;;23.40;40.30;;;;;;5051921;28;20047;-72
2022/03/28 12:43:49;;;;;;;37.20;19.08;;;23.40;40.90;;;;;;5041637;28;20033;-74
2022/03/28 12:46:18;;;;;;;32.20;17.73;;;23.70;40.20;;;;;;5046659;28;20030;-74
2022/03/28 12:48:54;;;;;;;30.67;17.75;;;23.90;40.70;;;;;;5051489;28;20033;-74
2022/03/28 12:51:25;;;;;;;34.25;18.20;;;23.80;41.00;;;;;;5044745;28;20033;-73
2022/03/28 12:54:00;;;;;;;28.50;18.05;;;23.90;40.70;;;;;;5046192;28;20037;-74